createdAt,value
2019-05-20T00:00:55.814Z,8.67
2019-05-20T00:03:29.930Z,8.50
2019-05-20T00:06:06.655Z,8.90
2019-05-20T00:08:40.768Z,9.70
2019-05-20T00:11:14.786Z,9.63
2019-05-20T00:13:48.672Z,10.23
2019-05-20T00:16:25.054Z,10.80
2019-05-20T00:18:59.320Z,10.33
2019-05-20T00:21:33.059Z,12.10
2019-05-20T00:24:07.083Z,12.87
2019-05-20T00:26:40.759Z,11.93
2019-05-20T00:29:27.797Z,10.67
2019-05-20T00:32:01.646Z,10.70
2019-05-20T00:34:35.843Z,13.07
2019-05-20T00:37:09.730Z,11.47
2019-05-20T00:39:43.608Z,12.27
2019-05-20T00:42:17.637Z,10.37
2019-05-20T00:44:51.784Z,10.80
2019-05-20T00:47:29.597Z,11.33
2019-05-20T00:50:03.708Z,11.87
2019-05-20T00:52:39.643Z,12.53
2019-05-20T00:55:26.569Z,12.03
2019-05-20T00:58:02.918Z,11.90
2019-05-20T01:00:37.235Z,14.37
2019-05-20T01:03:11.477Z,14.27
2019-05-20T01:05:47.108Z,13.00
2019-05-20T01:08:20.890Z,13.93
2019-05-20T01:10:55.308Z,12.50
2019-05-20T01:13:29.966Z,14.50
2019-05-20T01:16:13.915Z,12.50
2019-05-20T01:18:51.600Z,17.17
2019-05-20T01:21:25.303Z,12.77
2019-05-20T01:23:58.966Z,14.30
2019-05-20T01:26:32.660Z,15.03
2019-05-20T01:29:08.183Z,14.87
2019-05-20T01:31:41.874Z,13.23
2019-05-20T01:34:15.580Z,13.20
2019-05-20T01:37:07.903Z,15.00
2019-05-20T01:39:43.148Z,14.70
2019-05-20T01:42:16.935Z,14.57
2019-05-20T01:44:51.061Z,15.63
2019-05-20T01:47:26.964Z,14.73
2019-05-20T01:50:00.863Z,17.60
2019-05-20T01:52:35.670Z,14.97
2019-05-20T01:55:10.389Z,16.20
2019-05-20T01:57:45.225Z,21.60
2019-05-20T02:00:19.169Z,18.23
2019-05-20T02:02:54.377Z,16.97
2019-05-20T02:05:28.373Z,17.50
2019-05-20T02:08:02.093Z,15.80
2019-05-20T02:10:37.787Z,19.20
2019-05-20T02:13:11.816Z,17.20
2019-05-20T02:15:55.796Z,18.53
2019-05-20T02:18:29.680Z,23.77
2019-05-20T02:21:04.785Z,18.40
2019-05-20T02:23:38.620Z,21.90
2019-05-20T02:26:13.105Z,20.50
2019-05-20T02:28:46.782Z,17.93
2019-05-20T02:31:21.264Z,18.10
2019-05-20T02:33:57.190Z,21.20
2019-05-20T02:36:31.173Z,19.20
2019-05-20T02:39:06.712Z,23.07
2019-05-20T02:41:41.865Z,26.37
2019-05-20T02:44:15.627Z,19.47
2019-05-20T02:46:49.495Z,21.37
2019-05-20T02:49:25.435Z,24.73
2019-05-20T02:51:59.152Z,19.47
2019-05-20T02:54:34.381Z,21.77
2019-05-20T02:57:08.447Z,21.40
2019-05-20T02:59:44.197Z,19.80
2019-05-20T03:02:17.984Z,23.83
2019-05-20T03:04:51.813Z,21.43
2019-05-20T03:07:25.578Z,22.23
2019-05-20T03:09:59.241Z,20.10
2019-05-20T03:12:33.000Z,22.90
2019-05-20T03:15:06.840Z,20.63
2019-05-20T03:17:40.680Z,21.77
2019-05-20T03:20:16.175Z,22.83
2019-05-20T03:22:49.990Z,21.80
2019-05-20T03:25:23.669Z,21.50
2019-05-20T03:28:02.556Z,24.30
2019-05-20T03:30:36.294Z,21.00
2019-05-20T03:33:10.351Z,26.30
2019-05-20T03:35:45.262Z,23.93
2019-05-20T03:38:19.127Z,21.03
2019-05-20T03:40:52.890Z,23.80
2019-05-20T03:43:27.792Z,27.30
2019-05-20T03:46:01.945Z,24.47
2019-05-20T03:48:36.870Z,23.33
2019-05-20T03:51:10.594Z,26.10
2019-05-20T03:53:44.884Z,23.10
2019-05-20T03:56:18.862Z,20.83
2019-05-20T03:58:54.834Z,21.47
2019-05-20T04:01:28.653Z,23.17
2019-05-20T04:04:02.537Z,23.80
2019-05-20T04:06:37.400Z,21.47
2019-05-20T04:09:11.410Z,22.20
2019-05-20T04:11:45.048Z,22.23
2019-05-20T04:14:19.849Z,24.00
2019-05-20T04:16:54.670Z,22.83
2019-05-20T04:19:28.473Z,20.13
2019-05-20T04:22:03.409Z,21.20
2019-05-20T04:24:39.977Z,21.20
2019-05-20T04:27:13.674Z,19.80
2019-05-20T04:29:48.919Z,24.70
2019-05-20T04:32:22.734Z,20.33
2019-05-20T04:34:58.989Z,20.40
2019-05-20T04:37:32.712Z,25.83
2019-05-20T04:40:06.607Z,22.73
2019-05-20T04:42:43.699Z,24.80
2019-05-20T04:45:19.971Z,20.43
2019-05-20T04:47:56.647Z,21.30
2019-05-20T04:50:33.614Z,23.87
2019-05-20T04:53:07.726Z,20.53
2019-05-20T04:55:41.523Z,21.67
2019-05-20T04:58:15.240Z,21.53
2019-05-20T05:00:59.998Z,21.63
2019-05-20T05:03:36.560Z,20.17
2019-05-20T05:06:10.479Z,19.73
2019-05-20T05:08:44.518Z,19.80
2019-05-20T05:11:19.385Z,18.47
2019-05-20T05:13:54.679Z,20.27
2019-05-20T05:16:32.057Z,22.03
2019-05-20T05:19:07.402Z,19.20
2019-05-20T05:21:42.739Z,17.97
2019-05-20T05:24:18.222Z,19.83
2019-05-20T05:26:51.830Z,21.17
2019-05-20T05:29:26.730Z,19.70
2019-05-20T05:32:01.552Z,18.70
2019-05-20T05:34:37.708Z,18.03
2019-05-20T05:37:11.525Z,20.33
2019-05-20T05:39:45.607Z,22.43
2019-05-20T05:42:20.474Z,18.30
2019-05-20T05:44:54.115Z,17.83
2019-05-20T05:47:27.773Z,16.57
2019-05-20T05:50:02.719Z,20.97
2019-05-20T05:52:39.026Z,15.03
2019-05-20T05:55:12.856Z,15.70
2019-05-20T05:57:47.723Z,14.63
2019-05-20T06:00:23.840Z,16.93
2019-05-20T06:02:58.833Z,15.57
2019-05-20T06:05:33.015Z,15.47
2019-05-20T06:08:06.945Z,20.10
2019-05-20T06:10:40.754Z,19.00
2019-05-20T06:13:14.701Z,18.27
2019-05-20T06:15:48.516Z,14.37
2019-05-20T06:18:24.014Z,14.77
2019-05-20T06:21:00.602Z,14.17
2019-05-20T06:23:35.876Z,16.77
2019-05-20T06:26:09.754Z,13.20
2019-05-20T06:28:43.758Z,13.57
2019-05-20T06:31:17.513Z,14.67
2019-05-20T06:33:54.639Z,12.77
2019-05-20T06:36:28.620Z,14.73
2019-05-20T06:39:14.027Z,18.10
2019-05-20T06:41:50.115Z,12.40
2019-05-20T06:44:23.899Z,14.73
2019-05-20T06:46:57.937Z,16.80
2019-05-20T06:49:33.251Z,13.97
2019-05-20T06:52:07.099Z,12.70
2019-05-20T06:54:40.757Z,12.43
2019-05-20T06:57:16.517Z,16.33
2019-05-20T06:59:51.242Z,16.37
2019-05-20T07:02:25.150Z,12.80
2019-05-20T07:04:59.921Z,14.17
2019-05-20T07:07:35.434Z,16.00
2019-05-20T07:10:26.168Z,14.93
2019-05-20T07:13:00.973Z,12.07
2019-05-20T07:15:36.104Z,12.77
2019-05-20T07:18:09.854Z,13.57
2019-05-20T07:20:43.513Z,13.17
2019-05-20T07:23:17.545Z,15.77
2019-05-20T07:25:51.418Z,13.07
2019-05-20T07:28:25.363Z,13.70
2019-05-20T07:31:00.182Z,13.00
2019-05-20T07:33:34.079Z,20.80
2019-05-20T07:36:10.070Z,12.93
2019-05-20T07:38:44.788Z,12.63
2019-05-20T07:41:18.988Z,12.73
2019-05-20T07:43:54.336Z,12.80
2019-05-20T07:46:29.617Z,15.50
2019-05-20T07:49:10.483Z,18.80
2019-05-20T07:51:46.598Z,13.63
2019-05-20T07:54:23.806Z,13.87
2019-05-20T07:57:02.193Z,16.13
2019-05-20T07:59:40.405Z,13.73
2019-05-20T08:02:15.242Z,18.17
2019-05-20T08:04:51.629Z,13.57
2019-05-20T08:07:41.402Z,14.30
2019-05-20T08:10:02.512Z,15.97
2019-05-20T08:12:36.106Z,14.50
2019-05-20T08:15:11.045Z,14.40
2019-05-20T08:17:47.012Z,13.33
2019-05-20T08:20:21.605Z,17.93
2019-05-20T08:22:55.299Z,13.23
2019-05-20T08:25:30.874Z,15.07
2019-05-20T08:28:07.042Z,15.17
2019-05-20T08:30:42.064Z,14.03
2019-05-20T08:33:15.771Z,12.20
2019-05-20T08:35:49.751Z,14.57
2019-05-20T08:38:23.494Z,15.17
2019-05-20T08:40:58.968Z,15.77
2019-05-20T08:43:33.260Z,15.23
2019-05-20T08:46:07.324Z,17.90
2019-05-20T08:48:41.495Z,17.20
2019-05-20T08:51:15.294Z,15.40
2019-05-20T08:53:49.361Z,17.00
2019-05-20T08:56:23.048Z,16.20
2019-05-20T08:58:56.941Z,16.90
2019-05-20T09:01:30.814Z,16.53
2019-05-20T09:04:05.577Z,17.00
2019-05-20T09:06:41.926Z,16.33
2019-05-20T09:09:15.612Z,17.60
2019-05-20T09:11:51.094Z,20.63
2019-05-20T09:14:24.794Z,17.83
2019-05-20T09:16:58.496Z,18.60
2019-05-20T09:19:32.717Z,16.93
2019-05-20T09:22:06.537Z,17.67
2019-05-20T09:24:40.567Z,21.60
2019-05-20T09:27:14.459Z,19.30
2019-05-20T09:29:49.391Z,16.17
2019-05-20T09:32:23.931Z,17.23
2019-05-20T09:34:59.502Z,18.20
2019-05-20T09:37:33.266Z,17.50
2019-05-20T09:40:08.672Z,18.30
2019-05-20T09:42:42.409Z,18.70
2019-05-20T09:45:16.451Z,18.83
2019-05-20T09:47:50.330Z,18.60
2019-05-20T09:50:24.142Z,17.97
2019-05-20T09:52:58.589Z,18.90
2019-05-20T09:55:32.673Z,19.50
2019-05-20T09:58:07.899Z,21.50
2019-05-20T10:00:42.822Z,22.10
2019-05-20T10:03:16.454Z,19.37
2019-05-20T10:05:50.225Z,18.27
2019-05-20T10:08:37.539Z,19.10
2019-05-20T10:11:00.482Z,19.03
2019-05-20T10:13:34.365Z,15.60
2019-05-20T10:16:09.438Z,15.60
2019-05-20T10:18:44.741Z,16.00
2019-05-20T10:21:18.534Z,19.00
2019-05-20T10:23:52.506Z,21.00
2019-05-20T10:26:26.269Z,14.03
2019-05-20T10:29:00.398Z,18.80
2019-05-20T10:31:34.179Z,14.30
2019-05-20T10:34:09.114Z,13.73
2019-05-20T10:36:43.915Z,15.73
2019-05-20T10:39:18.674Z,16.10
2019-05-20T10:41:52.424Z,15.73
2019-05-20T10:44:27.818Z,12.13
2019-05-20T10:47:03.213Z,13.13
2019-05-20T10:49:37.162Z,13.30
2019-05-20T10:52:10.999Z,15.53
2019-05-20T10:54:45.909Z,13.83
2019-05-20T10:57:20.082Z,11.40
2019-05-20T10:59:53.747Z,11.43
2019-05-20T11:02:31.157Z,13.90
2019-05-20T11:05:03.360Z,13.90
2019-05-20T11:07:37.227Z,14.10
2019-05-20T11:10:11.560Z,12.63
2019-05-20T11:12:45.567Z,10.20
2019-05-20T11:15:21.130Z,13.97
2019-05-20T11:17:55.087Z,12.37
2019-05-20T11:20:30.265Z,11.00
2019-05-20T11:23:04.156Z,9.87
2019-05-20T11:25:38.914Z,12.43
2019-05-20T11:28:14.822Z,12.70
2019-05-20T11:30:48.680Z,14.47
2019-05-20T11:33:22.855Z,13.00
2019-05-20T11:35:58.007Z,10.90
2019-05-20T11:38:32.564Z,13.07
2019-05-20T11:41:06.339Z,14.90
2019-05-20T11:43:39.916Z,11.67
2019-05-20T11:46:13.989Z,10.40
2019-05-20T11:48:47.829Z,11.27
2019-05-20T11:51:22.998Z,14.67
2019-05-20T11:53:58.247Z,15.23
2019-05-20T11:56:32.971Z,9.90
2019-05-20T11:59:06.783Z,11.00
2019-05-20T12:01:43.870Z,10.13
2019-05-20T12:04:21.151Z,11.57
2019-05-20T12:06:55.389Z,14.10
2019-05-20T12:09:30.608Z,9.93
2019-05-20T12:12:05.566Z,10.23
2019-05-20T12:14:41.482Z,11.97
2019-05-20T12:17:17.134Z,12.30
2019-05-20T12:19:50.958Z,15.73
2019-05-20T12:22:24.951Z,10.27
2019-05-20T12:24:58.707Z,11.00
2019-05-20T12:27:34.222Z,10.90
2019-05-20T12:30:08.752Z,10.60
2019-05-20T12:32:42.613Z,9.57
2019-05-20T12:35:17.792Z,9.47
2019-05-20T12:37:52.018Z,9.40
2019-05-20T12:40:26.495Z,12.10
2019-05-20T12:43:00.473Z,8.33
2019-05-20T12:45:36.123Z,9.73
2019-05-20T12:48:11.033Z,10.13
2019-05-20T12:50:46.707Z,8.53
2019-05-20T12:53:20.569Z,10.00
2019-05-20T12:55:54.657Z,16.80
2019-05-20T12:58:29.379Z,8.23
2019-05-20T13:01:03.465Z,10.07
2019-05-20T13:03:39.450Z,9.00
2019-05-20T13:06:14.345Z,8.63
2019-05-20T13:08:48.942Z,11.90
2019-05-20T13:11:24.821Z,9.07
2019-05-20T13:13:58.644Z,8.87
2019-05-20T13:16:32.771Z,8.23
2019-05-20T13:19:06.684Z,6.97
2019-05-20T13:21:40.696Z,7.70
2019-05-20T13:24:14.485Z,6.93
2019-05-20T13:26:50.031Z,8.27
2019-05-20T13:29:23.644Z,7.20
2019-05-20T13:32:00.666Z,8.70
2019-05-20T13:34:34.668Z,7.87
2019-05-20T13:37:09.845Z,6.27
2019-05-20T13:39:44.077Z,8.00
2019-05-20T13:42:17.861Z,7.40
2019-05-20T13:44:51.674Z,7.77
2019-05-20T13:47:27.146Z,8.87
2019-05-20T13:50:00.856Z,10.93
2019-05-20T13:52:36.491Z,8.00
2019-05-20T13:55:11.098Z,6.63
2019-05-20T13:57:45.346Z,6.80
2019-05-20T14:00:20.322Z,6.37
2019-05-20T14:02:54.515Z,8.33
2019-05-20T14:05:29.226Z,9.87
2019-05-20T14:08:03.468Z,6.40
2019-05-20T14:10:37.251Z,7.20
2019-05-20T14:13:21.394Z,5.80
2019-05-20T14:15:57.354Z,13.10
2019-05-20T14:18:31.079Z,6.50
2019-05-20T14:21:04.866Z,6.30
2019-05-20T14:23:40.333Z,5.23
2019-05-20T14:26:14.114Z,5.30
2019-05-20T14:28:49.665Z,5.03
2019-05-20T14:31:23.577Z,6.33
2019-05-20T14:34:00.145Z,6.17
2019-05-20T14:36:39.882Z,5.47
2019-05-20T14:39:09.792Z,6.90
2019-05-20T14:41:44.821Z,5.37
2019-05-20T14:44:18.916Z,7.17
2019-05-20T14:46:53.105Z,5.07
2019-05-20T14:49:26.923Z,4.60
2019-05-20T14:52:00.830Z,5.30
2019-05-20T14:54:36.344Z,7.70
2019-05-20T14:57:10.155Z,4.20
2019-05-20T14:59:47.440Z,4.80
2019-05-20T15:02:23.019Z,5.03
2019-05-20T15:04:56.905Z,6.40
2019-05-20T15:07:32.189Z,4.37
2019-05-20T15:10:06.870Z,6.40
2019-05-20T15:12:40.739Z,4.60
2019-05-20T15:15:16.916Z,5.50
2019-05-20T15:17:58.013Z,4.40
2019-05-20T15:20:32.117Z,5.47
2019-05-20T15:23:05.829Z,4.73
2019-05-20T15:25:40.150Z,14.63
2019-05-20T15:28:14.970Z,4.30
2019-05-20T15:30:49.816Z,4.37
2019-05-20T15:33:23.679Z,5.10
2019-05-20T15:35:59.374Z,5.70
2019-05-20T15:38:53.516Z,7.10
2019-05-20T15:41:27.202Z,5.10
2019-05-20T15:44:02.497Z,6.50
2019-05-20T15:46:36.251Z,5.03
2019-05-20T15:49:12.001Z,5.00
2019-05-20T15:51:46.722Z,6.70
2019-05-20T15:54:21.935Z,5.50
2019-05-20T15:56:58.435Z,4.43
2019-05-20T15:59:45.519Z,5.93
2019-05-20T16:02:09.231Z,5.77
2019-05-20T16:04:44.117Z,5.60
2019-05-20T16:07:18.388Z,5.43
2019-05-20T16:09:52.576Z,5.07
2019-05-20T16:12:27.387Z,4.80
2019-05-20T16:15:02.525Z,7.03
2019-05-20T16:17:36.277Z,7.27
2019-05-20T16:20:11.777Z,4.93
2019-05-20T16:22:45.785Z,6.80
2019-05-20T16:25:19.606Z,6.73
2019-05-20T16:27:53.366Z,5.73
2019-05-20T16:30:27.186Z,4.37
2019-05-20T16:33:02.484Z,4.47
2019-05-20T16:35:37.270Z,4.83
2019-05-20T16:38:12.631Z,6.50
2019-05-20T16:40:46.594Z,5.57
2019-05-20T16:43:20.919Z,8.50
2019-05-20T16:45:56.193Z,4.77
2019-05-20T16:48:30.980Z,6.10
2019-05-20T16:51:04.837Z,5.03
2019-05-20T16:53:39.453Z,5.00
2019-05-20T16:56:15.534Z,10.33
2019-05-20T16:58:49.330Z,5.10
2019-05-20T17:01:27.032Z,4.53
2019-05-20T17:04:02.374Z,5.03
2019-05-20T17:06:36.960Z,5.40
2019-05-20T17:09:11.592Z,6.03
2019-05-20T17:11:47.786Z,7.20
2019-05-20T17:14:21.620Z,6.70
2019-05-20T17:16:56.172Z,6.50
2019-05-20T17:19:33.644Z,9.50
2019-05-20T17:22:07.594Z,6.43
2019-05-20T17:24:43.765Z,9.30
2019-05-20T17:27:18.925Z,7.27
2019-05-20T17:30:03.991Z,9.53
2019-05-20T17:32:38.771Z,9.73
2019-05-20T17:35:13.267Z,15.50
2019-05-20T17:37:48.295Z,9.47
2019-05-20T17:40:22.975Z,9.97
2019-05-20T17:42:59.186Z,10.87
2019-05-20T17:45:35.282Z,9.50
2019-05-20T17:48:10.283Z,10.50
2019-05-20T17:50:44.923Z,11.67
2019-05-20T17:53:26.488Z,9.37
2019-05-20T17:56:03.269Z,10.60
2019-05-20T17:58:39.486Z,12.93
2019-05-20T18:01:16.208Z,10.40
2019-05-20T18:03:51.841Z,9.23
2019-05-20T18:06:27.015Z,10.17
2019-05-20T18:09:04.895Z,13.20
2019-05-20T18:11:39.199Z,15.90
2019-05-20T18:14:13.840Z,13.60
2019-05-20T18:16:48.990Z,12.50
2019-05-20T18:23:27.659Z,11.47
2019-05-20T18:26:03.629Z,13.07
2019-05-20T18:28:38.712Z,12.47
2019-05-20T18:31:31.252Z,14.00
2019-05-20T18:33:53.877Z,13.70
2019-05-20T18:36:29.092Z,17.70
2019-05-20T18:39:08.441Z,12.33
2019-05-20T18:41:46.163Z,14.60
2019-05-20T18:44:22.057Z,16.80
2019-05-20T18:47:02.409Z,13.40
2019-05-20T18:49:42.590Z,13.07
2019-05-20T18:52:16.785Z,14.80
2019-05-20T18:54:51.227Z,12.53
2019-05-20T18:57:27.555Z,13.27
2019-05-20T19:00:04.467Z,13.80
2019-05-20T19:02:40.746Z,12.87
2019-05-20T19:05:18.095Z,13.90
2019-05-20T19:07:52.268Z,16.37
2019-05-20T19:10:27.382Z,13.93
2019-05-20T19:13:06.933Z,18.30
2019-05-20T19:15:41.825Z,12.97
2019-05-20T19:18:16.791Z,12.97
2019-05-20T19:20:51.603Z,14.03
2019-05-20T19:23:27.063Z,12.13
2019-05-20T19:26:02.792Z,12.83
2019-05-20T19:28:38.093Z,12.40
2019-05-20T19:31:12.361Z,19.53
2019-05-20T19:33:48.385Z,11.97
2019-05-20T19:36:25.811Z,14.87
2019-05-20T19:39:01.566Z,12.20
2019-05-20T19:41:44.351Z,15.13
2019-05-20T19:44:20.168Z,19.33
2019-05-20T19:46:55.788Z,13.90
2019-05-20T19:49:34.526Z,14.07
2019-05-20T19:52:08.542Z,13.97
2019-05-20T19:54:43.548Z,14.50
2019-05-20T19:57:18.173Z,15.70
2019-05-20T19:59:53.122Z,16.33
2019-05-20T20:02:26.848Z,18.53
2019-05-20T20:05:01.855Z,19.20
2019-05-20T20:07:36.009Z,15.90
2019-05-20T20:10:11.940Z,16.03
2019-05-20T20:12:45.809Z,14.20
2019-05-20T20:15:20.562Z,15.20
2019-05-20T20:17:54.434Z,16.10
2019-05-20T20:20:32.246Z,17.57
2019-05-20T20:23:11.956Z,16.40
2019-05-20T20:25:46.329Z,19.00
2019-05-20T20:28:21.578Z,17.20
2019-05-20T20:30:55.340Z,16.07
2019-05-20T20:33:29.489Z,16.20
2019-05-20T20:36:03.407Z,16.13
2019-05-20T20:38:38.259Z,14.80
2019-05-20T20:41:16.367Z,16.20
2019-05-20T20:43:50.614Z,17.70
2019-05-20T20:46:26.231Z,16.50
2019-05-20T20:49:01.182Z,17.10
2019-05-20T20:51:35.071Z,15.17
2019-05-20T20:54:10.675Z,15.60
2019-05-20T20:56:44.742Z,18.87
2019-05-20T20:59:18.900Z,17.90
2019-05-20T21:01:56.723Z,16.87
2019-05-20T21:04:28.518Z,16.83
2019-05-20T21:07:02.356Z,17.83
2019-05-20T21:09:36.154Z,14.00
2019-05-20T21:12:10.409Z,15.03
2019-05-20T21:14:45.334Z,15.57
2019-05-20T21:17:20.524Z,15.77
2019-05-20T21:19:54.334Z,14.70
2019-05-20T21:22:28.014Z,14.63
2019-05-20T21:25:01.661Z,14.93
2019-05-20T21:27:35.650Z,14.23
2019-05-20T21:30:10.975Z,15.47
2019-05-20T21:32:44.782Z,12.80
2019-05-20T21:35:19.542Z,13.80
2019-05-20T21:38:07.594Z,17.67
2019-05-20T21:40:42.726Z,13.80
2019-05-20T21:43:16.724Z,15.37
2019-05-20T21:45:53.390Z,15.10
2019-05-20T21:48:27.061Z,19.87
2019-05-20T21:51:04.289Z,14.70
2019-05-20T21:53:40.164Z,25.30
2019-05-20T21:56:16.302Z,16.80
2019-05-20T21:58:52.365Z,21.40
2019-05-20T22:01:29.338Z,17.47
2019-05-20T22:04:04.724Z,19.67
2019-05-20T22:06:38.740Z,17.27
2019-05-20T22:09:16.775Z,21.20
2019-05-20T22:11:51.531Z,18.57
2019-05-20T22:14:26.365Z,18.30
2019-05-20T22:17:02.221Z,17.10
2019-05-20T22:19:36.036Z,19.73
2019-05-20T22:22:32.520Z,19.80
2019-05-20T22:25:06.710Z,20.90
2019-05-20T22:27:42.391Z,17.27
2019-05-20T22:30:16.769Z,20.37
2019-05-20T22:32:50.567Z,19.97
2019-05-20T22:35:26.123Z,20.90
2019-05-20T22:38:01.029Z,20.40
2019-05-20T22:40:35.202Z,19.23
2019-05-20T22:43:11.510Z,21.40
2019-05-20T22:45:46.343Z,18.73
2019-05-20T22:48:22.030Z,22.73
2019-05-20T22:50:55.755Z,21.37
2019-05-20T22:53:29.918Z,21.70
2019-05-20T22:56:03.886Z,19.93
2019-05-20T22:58:56.972Z,20.83
2019-05-20T23:01:31.599Z,23.20
2019-05-20T23:04:06.848Z,21.13
2019-05-20T23:06:40.547Z,22.80
2019-05-20T23:09:15.114Z,26.27
2019-05-20T23:11:48.770Z,22.00
2019-05-20T23:14:23.598Z,25.50
2019-05-20T23:16:57.518Z,26.70
2019-05-20T23:19:32.453Z,25.50
2019-05-20T23:22:06.876Z,23.83
2019-05-20T23:24:40.827Z,24.77
2019-05-20T23:27:16.649Z,21.27
2019-05-20T23:29:50.935Z,24.13
2019-05-20T23:32:26.000Z,25.93
2019-05-20T23:35:00.016Z,25.70
2019-05-20T23:37:34.472Z,27.27
2019-05-20T23:40:09.876Z,26.87
2019-05-20T23:42:45.300Z,26.07
2019-05-20T23:45:19.334Z,25.27
2019-05-20T23:47:53.149Z,26.73
2019-05-20T23:50:27.482Z,23.93
2019-05-20T23:53:02.404Z,27.20
2019-05-20T23:55:36.409Z,23.57
2019-05-20T23:58:10.175Z,23.10
